sensor_id;sensor_type;location;lat;lon;timestamp;P1;durP1;ratioP1;P2;durP2;ratioP2
36379;SDS011;22411;53.016;18.632;2023-04-12T00:01:51;13.63;;;8.98;;
36379;SDS011;22411;53.016;18.632;2023-04-12T00:04:17;15.73;;;9.82;;
36379;SDS011;22411;53.016;18.632;2023-04-12T00:06:47;13.80;;;9.07;;
36379;SDS011;22411;53.016;18.632;2023-04-12T00:09:15;13.85;;;9.00;;
36379;SDS011;22411;53.016;18.632;2023-04-12T00:11:41;12.93;;;9.17;;
36379;SDS011;22411;53.016;18.632;2023-04-12T00:14:07;15.82;;;9.63;;
36379;SDS011;22411;53.016;18.632;2023-04-12T00:16:33;11.73;;;8.23;;
36379;SDS011;22411;53.016;18.632;2023-04-12T00:19:01;15.13;;;9.18;;
36379;SDS011;22411;53.016;18.632;2023-04-12T00:21:28;13.45;;;9.00;;
36379;SDS011;22411;53.016;18.632;2023-04-12T00:23:55;14.45;;;9.40;;
36379;SDS011;22411;53.016;18.632;2023-04-12T00:26:21;13.63;;;8.87;;
36379;SDS011;22411;53.016;18.632;2023-04-12T00:28:47;15.20;;;10.55;;
36379;SDS011;22411;53.016;18.632;2023-04-12T00:31:14;13.88;;;9.23;;
36379;SDS011;22411;53.016;18.632;2023-04-12T00:33:40;16.90;;;10.73;;
36379;SDS011;22411;53.016;18.632;2023-04-12T00:36:06;17.42;;;11.00;;
36379;SDS011;22411;53.016;18.632;2023-04-12T00:38:32;14.95;;;10.13;;
36379;SDS011;22411;53.016;18.632;2023-04-12T00:40:59;17.40;;;11.85;;
36379;SDS011;22411;53.016;18.632;2023-04-12T00:43:26;18.40;;;11.18;;
36379;SDS011;22411;53.016;18.632;2023-04-12T00:45:53;17.50;;;11.27;;
36379;SDS011;22411;53.016;18.632;2023-04-12T00:48:22;18.55;;;10.77;;
36379;SDS011;22411;53.016;18.632;2023-04-12T00:50:49;19.33;;;12.52;;
36379;SDS011;22411;53.016;18.632;2023-04-12T00:53:15;19.80;;;13.27;;
36379;SDS011;22411;53.016;18.632;2023-04-12T00:55:43;19.65;;;12.57;;
36379;SDS011;22411;53.016;18.632;2023-04-12T00:58:10;20.08;;;12.35;;
36379;SDS011;22411;53.016;18.632;2023-04-12T01:00:37;23.33;;;13.00;;
36379;SDS011;22411;53.016;18.632;2023-04-12T01:03:03;21.35;;;14.48;;
36379;SDS011;22411;53.016;18.632;2023-04-12T01:05:30;21.55;;;14.43;;
36379;SDS011;22411;53.016;18.632;2023-04-12T01:08:14;21.23;;;12.75;;
36379;SDS011;22411;53.016;18.632;2023-04-12T01:10:54;19.23;;;12.05;;
36379;SDS011;22411;53.016;18.632;2023-04-12T01:13:27;25.80;;;13.20;;
36379;SDS011;22411;53.016;18.632;2023-04-12T01:16:06;22.93;;;14.23;;
36379;SDS011;22411;53.016;18.632;2023-04-12T01:18:39;19.17;;;12.90;;
36379;SDS011;22411;53.016;18.632;2023-04-12T01:21:08;21.45;;;14.57;;
36379;SDS011;22411;53.016;18.632;2023-04-12T01:23:42;21.40;;;12.75;;
36379;SDS011;22411;53.016;18.632;2023-04-12T01:29:07;23.87;;;13.83;;
36379;SDS011;22411;53.016;18.632;2023-04-12T01:31:35;24.20;;;13.93;;
36379;SDS011;22411;53.016;18.632;2023-04-12T01:34:07;24.07;;;14.97;;
36379;SDS011;22411;53.016;18.632;2023-04-12T01:36:36;29.23;;;16.88;;
36379;SDS011;22411;53.016;18.632;2023-04-12T01:39:04;27.38;;;16.38;;
36379;SDS011;22411;53.016;18.632;2023-04-12T01:41:32;29.75;;;16.98;;
36379;SDS011;22411;53.016;18.632;2023-04-12T01:44:06;26.50;;;16.63;;
36379;SDS011;22411;53.016;18.632;2023-04-12T01:46:32;29.42;;;19.30;;
36379;SDS011;22411;53.016;18.632;2023-04-12T01:49:02;31.48;;;18.23;;
36379;SDS011;22411;53.016;18.632;2023-04-12T01:51:39;24.75;;;15.20;;
36379;SDS011;22411;53.016;18.632;2023-04-12T01:54:20;27.83;;;16.58;;
36379;SDS011;22411;53.016;18.632;2023-04-12T01:56:51;31.33;;;18.42;;
36379;SDS011;22411;53.016;18.632;2023-04-12T01:59:22;30.27;;;17.10;;
36379;SDS011;22411;53.016;18.632;2023-04-12T02:01:53;25.88;;;17.77;;
36379;SDS011;22411;53.016;18.632;2023-04-12T02:04:19;30.53;;;18.83;;
36379;SDS011;22411;53.016;18.632;2023-04-12T02:06:46;29.88;;;19.23;;
36379;SDS011;22411;53.016;18.632;2023-04-12T02:09:15;30.50;;;19.75;;
36379;SDS011;22411;53.016;18.632;2023-04-12T02:11:44;32.17;;;19.75;;
36379;SDS011;22411;53.016;18.632;2023-04-12T02:14:12;30.80;;;17.58;;
36379;SDS011;22411;53.016;18.632;2023-04-12T02:16:38;30.70;;;18.23;;
36379;SDS011;22411;53.016;18.632;2023-04-12T02:19:06;33.28;;;19.33;;
36379;SDS011;22411;53.016;18.632;2023-04-12T02:21:40;33.70;;;20.10;;
36379;SDS011;22411;53.016;18.632;2023-04-12T02:24:07;27.93;;;18.27;;
36379;SDS011;22411;53.016;18.632;2023-04-12T02:26:35;30.13;;;17.03;;
36379;SDS011;22411;53.016;18.632;2023-04-12T02:29:02;33.20;;;20.70;;
36379;SDS011;22411;53.016;18.632;2023-04-12T02:31:29;34.00;;;19.97;;
36379;SDS011;22411;53.016;18.632;2023-04-12T02:33:56;32.37;;;18.60;;
36379;SDS011;22411;53.016;18.632;2023-04-12T02:36:22;29.33;;;19.35;;
36379;SDS011;22411;53.016;18.632;2023-04-12T02:38:51;32.47;;;21.30;;
36379;SDS011;22411;53.016;18.632;2023-04-12T02:41:17;31.97;;;19.43;;
36379;SDS011;22411;53.016;18.632;2023-04-12T02:43:44;36.83;;;21.80;;
36379;SDS011;22411;53.016;18.632;2023-04-12T02:46:14;37.10;;;24.00;;
36379;SDS011;22411;53.016;18.632;2023-04-12T02:48:51;39.10;;;21.77;;
36379;SDS011;22411;53.016;18.632;2023-04-12T02:51:18;35.38;;;21.10;;
36379;SDS011;22411;53.016;18.632;2023-04-12T02:53:44;34.42;;;20.92;;
36379;SDS011;22411;53.016;18.632;2023-04-12T02:56:11;32.28;;;19.17;;
36379;SDS011;22411;53.016;18.632;2023-04-12T02:58:37;35.22;;;20.67;;
36379;SDS011;22411;53.016;18.632;2023-04-12T03:01:03;32.87;;;19.33;;
36379;SDS011;22411;53.016;18.632;2023-04-12T03:03:32;32.10;;;19.05;;
36379;SDS011;22411;53.016;18.632;2023-04-12T03:05:59;35.17;;;20.05;;
36379;SDS011;22411;53.016;18.632;2023-04-12T03:08:25;35.40;;;19.63;;
36379;SDS011;22411;53.016;18.632;2023-04-12T03:10:52;32.23;;;20.23;;
36379;SDS011;22411;53.016;18.632;2023-04-12T03:13:18;29.80;;;19.70;;
36379;SDS011;22411;53.016;18.632;2023-04-12T03:15:45;33.83;;;20.40;;
36379;SDS011;22411;53.016;18.632;2023-04-12T03:18:12;32.23;;;20.17;;
36379;SDS011;22411;53.016;18.632;2023-04-12T03:20:38;34.05;;;20.67;;
36379;SDS011;22411;53.016;18.632;2023-04-12T03:23:06;33.53;;;20.87;;
36379;SDS011;22411;53.016;18.632;2023-04-12T03:25:32;37.63;;;22.10;;
36379;SDS011;22411;53.016;18.632;2023-04-12T03:27:59;37.97;;;22.60;;
36379;SDS011;22411;53.016;18.632;2023-04-12T03:30:26;34.90;;;22.03;;
36379;SDS011;22411;53.016;18.632;2023-04-12T03:32:52;34.77;;;21.77;;
36379;SDS011;22411;53.016;18.632;2023-04-12T03:35:18;31.73;;;20.50;;
36379;SDS011;22411;53.016;18.632;2023-04-12T03:37:44;37.05;;;22.48;;
36379;SDS011;22411;53.016;18.632;2023-04-12T03:40:11;35.30;;;20.83;;
36379;SDS011;22411;53.016;18.632;2023-04-12T03:42:37;36.60;;;22.65;;
36379;SDS011;22411;53.016;18.632;2023-04-12T03:45:03;35.78;;;21.98;;
36379;SDS011;22411;53.016;18.632;2023-04-12T03:47:29;34.10;;;20.85;;
36379;SDS011;22411;53.016;18.632;2023-04-12T03:50:01;36.38;;;22.13;;
36379;SDS011;22411;53.016;18.632;2023-04-12T03:52:31;38.67;;;21.93;;
36379;SDS011;22411;53.016;18.632;2023-04-12T03:54:58;40.20;;;22.15;;
36379;SDS011;22411;53.016;18.632;2023-04-12T03:57:24;33.33;;;19.93;;
36379;SDS011;22411;53.016;18.632;2023-04-12T03:59:50;33.40;;;20.20;;
36379;SDS011;22411;53.016;18.632;2023-04-12T04:02:16;38.03;;;21.27;;
36379;SDS011;22411;53.016;18.632;2023-04-12T04:04:43;33.63;;;21.10;;
36379;SDS011;22411;53.016;18.632;2023-04-12T04:07:09;35.13;;;20.88;;
36379;SDS011;22411;53.016;18.632;2023-04-12T04:09:36;37.88;;;21.02;;
36379;SDS011;22411;53.016;18.632;2023-04-12T04:12:02;37.08;;;21.90;;
36379;SDS011;22411;53.016;18.632;2023-04-12T04:14:29;35.15;;;21.02;;
36379;SDS011;22411;53.016;18.632;2023-04-12T04:16:59;34.72;;;21.77;;
36379;SDS011;22411;53.016;18.632;2023-04-12T04:19:26;35.33;;;21.50;;
36379;SDS011;22411;53.016;18.632;2023-04-12T04:21:52;33.80;;;23.23;;
36379;SDS011;22411;53.016;18.632;2023-04-12T04:24:21;34.90;;;21.63;;
36379;SDS011;22411;53.016;18.632;2023-04-12T04:26:49;32.85;;;20.85;;
36379;SDS011;22411;53.016;18.632;2023-04-12T04:29:19;38.93;;;22.77;;
36379;SDS011;22411;53.016;18.632;2023-04-12T04:31:45;31.23;;;20.60;;
36379;SDS011;22411;53.016;18.632;2023-04-12T04:34:13;32.70;;;19.70;;
36379;SDS011;22411;53.016;18.632;2023-04-12T04:36:41;29.93;;;17.87;;
36379;SDS011;22411;53.016;18.632;2023-04-12T04:39:08;30.33;;;19.33;;
36379;SDS011;22411;53.016;18.632;2023-04-12T04:41:35;28.98;;;19.10;;
36379;SDS011;22411;53.016;18.632;2023-04-12T04:44:04;26.92;;;17.27;;
36379;SDS011;22411;53.016;18.632;2023-04-12T04:46:34;26.13;;;17.30;;
36379;SDS011;22411;53.016;18.632;2023-04-12T04:49:04;23.42;;;15.65;;
36379;SDS011;22411;53.016;18.632;2023-04-12T04:51:31;25.92;;;17.08;;
36379;SDS011;22411;53.016;18.632;2023-04-12T04:53:59;20.48;;;14.18;;
36379;SDS011;22411;53.016;18.632;2023-04-12T04:56:26;20.85;;;14.55;;
36379;SDS011;22411;53.016;18.632;2023-04-12T04:58:53;18.98;;;13.73;;
36379;SDS011;22411;53.016;18.632;2023-04-12T05:01:20;20.17;;;12.00;;
36379;SDS011;22411;53.016;18.632;2023-04-12T05:03:51;16.35;;;11.35;;
36379;SDS011;22411;53.016;18.632;2023-04-12T05:06:17;18.58;;;11.20;;
36379;SDS011;22411;53.016;18.632;2023-04-12T05:08:44;17.80;;;11.30;;
36379;SDS011;22411;53.016;18.632;2023-04-12T05:11:10;17.88;;;12.23;;
36379;SDS011;22411;53.016;18.632;2023-04-12T05:13:38;17.35;;;11.77;;
36379;SDS011;22411;53.016;18.632;2023-04-12T05:16:06;16.85;;;10.25;;
36379;SDS011;22411;53.016;18.632;2023-04-12T05:18:34;15.75;;;11.63;;
36379;SDS011;22411;53.016;18.632;2023-04-12T05:21:01;14.82;;;10.80;;
36379;SDS011;22411;53.016;18.632;2023-04-12T05:23:29;15.85;;;12.05;;
36379;SDS011;22411;53.016;18.632;2023-04-12T05:25:56;18.00;;;12.38;;
36379;SDS011;22411;53.016;18.632;2023-04-12T05:28:22;19.00;;;11.82;;
36379;SDS011;22411;53.016;18.632;2023-04-12T05:30:49;21.85;;;13.88;;
36379;SDS011;22411;53.016;18.632;2023-04-12T05:33:16;23.60;;;16.67;;
36379;SDS011;22411;53.016;18.632;2023-04-12T05:35:42;21.80;;;15.32;;
36379;SDS011;22411;53.016;18.632;2023-04-12T05:38:08;21.00;;;14.48;;
36379;SDS011;22411;53.016;18.632;2023-04-12T05:40:34;19.92;;;15.02;;
36379;SDS011;22411;53.016;18.632;2023-04-12T05:43:01;17.60;;;12.10;;
36379;SDS011;22411;53.016;18.632;2023-04-12T05:45:27;16.33;;;11.95;;
36379;SDS011;22411;53.016;18.632;2023-04-12T05:47:54;18.02;;;12.80;;
36379;SDS011;22411;53.016;18.632;2023-04-12T05:50:20;18.38;;;12.95;;
36379;SDS011;22411;53.016;18.632;2023-04-12T05:52:46;17.92;;;12.77;;
36379;SDS011;22411;53.016;18.632;2023-04-12T05:55:15;16.95;;;13.10;;
36379;SDS011;22411;53.016;18.632;2023-04-12T05:57:43;18.80;;;11.68;;
36379;SDS011;22411;53.016;18.632;2023-04-12T06:00:11;17.13;;;12.30;;
36379;SDS011;22411;53.016;18.632;2023-04-12T06:02:39;15.13;;;11.65;;
36379;SDS011;22411;53.016;18.632;2023-04-12T06:05:05;17.25;;;11.65;;
36379;SDS011;22411;53.016;18.632;2023-04-12T06:07:32;18.30;;;12.65;;
36379;SDS011;22411;53.016;18.632;2023-04-12T06:09:58;18.38;;;12.52;;
36379;SDS011;22411;53.016;18.632;2023-04-12T06:12:24;19.38;;;12.27;;
36379;SDS011;22411;53.016;18.632;2023-04-12T06:14:50;18.50;;;12.35;;
36379;SDS011;22411;53.016;18.632;2023-04-12T06:17:20;15.60;;;11.70;;
36379;SDS011;22411;53.016;18.632;2023-04-12T06:19:46;16.52;;;12.60;;
36379;SDS011;22411;53.016;18.632;2023-04-12T06:22:14;16.02;;;11.45;;
36379;SDS011;22411;53.016;18.632;2023-04-12T06:24:40;14.10;;;10.65;;
36379;SDS011;22411;53.016;18.632;2023-04-12T06:27:07;15.98;;;11.23;;
36379;SDS011;22411;53.016;18.632;2023-04-12T06:29:33;14.98;;;11.50;;
36379;SDS011;22411;53.016;18.632;2023-04-12T06:31:59;12.90;;;10.60;;
36379;SDS011;22411;53.016;18.632;2023-04-12T06:34:25;18.73;;;12.02;;
36379;SDS011;22411;53.016;18.632;2023-04-12T06:36:51;13.73;;;9.23;;
36379;SDS011;22411;53.016;18.632;2023-04-12T06:39:17;11.30;;;9.05;;
36379;SDS011;22411;53.016;18.632;2023-04-12T06:41:43;13.73;;;11.23;;
36379;SDS011;22411;53.016;18.632;2023-04-12T06:44:11;15.13;;;9.50;;
36379;SDS011;22411;53.016;18.632;2023-04-12T06:46:38;9.43;;;7.88;;
36379;SDS011;22411;53.016;18.632;2023-04-12T06:49:04;12.80;;;9.98;;
36379;SDS011;22411;53.016;18.632;2023-04-12T06:51:31;9.60;;;8.38;;
36379;SDS011;22411;53.016;18.632;2023-04-12T06:53:59;15.00;;;10.98;;
36379;SDS011;22411;53.016;18.632;2023-04-12T06:56:26;16.48;;;11.75;;
36379;SDS011;22411;53.016;18.632;2023-04-12T06:58:52;13.40;;;10.82;;
36379;SDS011;22411;53.016;18.632;2023-04-12T07:01:19;12.20;;;9.63;;
36379;SDS011;22411;53.016;18.632;2023-04-12T07:03:45;12.13;;;8.98;;
36379;SDS011;22411;53.016;18.632;2023-04-12T07:06:12;10.05;;;7.53;;
36379;SDS011;22411;53.016;18.632;2023-04-12T07:08:38;11.52;;;10.43;;
36379;SDS011;22411;53.016;18.632;2023-04-12T07:11:05;13.73;;;10.82;;
36379;SDS011;22411;53.016;18.632;2023-04-12T07:13:31;12.15;;;8.95;;
36379;SDS011;22411;53.016;18.632;2023-04-12T07:15:58;10.73;;;9.40;;
36379;SDS011;22411;53.016;18.632;2023-04-12T07:18:25;11.13;;;9.10;;
36379;SDS011;22411;53.016;18.632;2023-04-12T07:20:53;12.38;;;10.00;;
36379;SDS011;22411;53.016;18.632;2023-04-12T07:23:21;13.48;;;11.60;;
36379;SDS011;22411;53.016;18.632;2023-04-12T07:25:48;11.48;;;10.25;;
36379;SDS011;22411;53.016;18.632;2023-04-12T07:28:14;9.65;;;7.85;;
36379;SDS011;22411;53.016;18.632;2023-04-12T07:30:40;12.25;;;10.02;;
36379;SDS011;22411;53.016;18.632;2023-04-12T07:33:06;10.05;;;8.90;;
36379;SDS011;22411;53.016;18.632;2023-04-12T07:35:32;10.00;;;8.38;;
36379;SDS011;22411;53.016;18.632;2023-04-12T07:37:59;11.40;;;8.77;;
36379;SDS011;22411;53.016;18.632;2023-04-12T07:40:26;15.20;;;11.70;;
36379;SDS011;22411;53.016;18.632;2023-04-12T07:42:52;10.15;;;8.68;;
36379;SDS011;22411;53.016;18.632;2023-04-12T07:45:18;10.57;;;9.00;;
36379;SDS011;22411;53.016;18.632;2023-04-12T07:47:45;11.95;;;10.27;;
36379;SDS011;22411;53.016;18.632;2023-04-12T07:50:11;10.18;;;8.15;;
36379;SDS011;22411;53.016;18.632;2023-04-12T07:52:38;10.25;;;7.30;;
36379;SDS011;22411;53.016;18.632;2023-04-12T07:55:05;22.08;;;15.68;;
36379;SDS011;22411;53.016;18.632;2023-04-12T07:57:31;18.77;;;12.15;;
36379;SDS011;22411;53.016;18.632;2023-04-12T07:59:58;13.32;;;9.38;;
36379;SDS011;22411;53.016;18.632;2023-04-12T08:02:23;10.75;;;8.55;;
36379;SDS011;22411;53.016;18.632;2023-04-12T08:04:50;9.70;;;7.68;;
36379;SDS011;22411;53.016;18.632;2023-04-12T08:07:17;9.57;;;7.82;;
36379;SDS011;22411;53.016;18.632;2023-04-12T08:09:47;6.65;;;5.93;;
36379;SDS011;22411;53.016;18.632;2023-04-12T08:12:14;7.05;;;5.93;;
36379;SDS011;22411;53.016;18.632;2023-04-12T08:14:41;7.13;;;6.43;;
36379;SDS011;22411;53.016;18.632;2023-04-12T08:17:07;5.63;;;4.72;;
36379;SDS011;22411;53.016;18.632;2023-04-12T08:19:33;7.35;;;4.32;;
36379;SDS011;22411;53.016;18.632;2023-04-12T08:21:59;6.13;;;4.72;;
36379;SDS011;22411;53.016;18.632;2023-04-12T08:24:26;5.47;;;4.22;;
36379;SDS011;22411;53.016;18.632;2023-04-12T08:26:52;5.53;;;4.72;;
36379;SDS011;22411;53.016;18.632;2023-04-12T08:29:18;8.32;;;6.57;;
36379;SDS011;22411;53.016;18.632;2023-04-12T08:31:45;8.35;;;6.57;;
36379;SDS011;22411;53.016;18.632;2023-04-12T08:34:11;11.50;;;7.82;;
36379;SDS011;22411;53.016;18.632;2023-04-12T08:36:37;8.77;;;6.95;;
36379;SDS011;22411;53.016;18.632;2023-04-12T08:39:04;13.27;;;7.93;;
36379;SDS011;22411;53.016;18.632;2023-04-12T08:41:30;8.38;;;4.90;;
36379;SDS011;22411;53.016;18.632;2023-04-12T08:43:57;5.40;;;3.92;;
36379;SDS011;22411;53.016;18.632;2023-04-12T08:46:25;4.25;;;3.20;;
36379;SDS011;22411;53.016;18.632;2023-04-12T08:48:51;5.25;;;3.85;;
36379;SDS011;22411;53.016;18.632;2023-04-12T08:51:20;7.78;;;6.82;;
36379;SDS011;22411;53.016;18.632;2023-04-12T08:53:48;33.97;;;22.70;;
36379;SDS011;22411;53.016;18.632;2023-04-12T08:56:15;10.20;;;6.60;;
36379;SDS011;22411;53.016;18.632;2023-04-12T08:58:45;6.35;;;4.13;;
36379;SDS011;22411;53.016;18.632;2023-04-12T09:01:15;3.80;;;2.65;;
36379;SDS011;22411;53.016;18.632;2023-04-12T09:03:43;3.17;;;2.42;;
36379;SDS011;22411;53.016;18.632;2023-04-12T09:06:11;4.28;;;2.40;;
36379;SDS011;22411;53.016;18.632;2023-04-12T09:08:53;6.95;;;4.05;;
36379;SDS011;22411;53.016;18.632;2023-04-12T09:13:54;4.93;;;4.32;;
36379;SDS011;22411;53.016;18.632;2023-04-12T09:16:39;4.22;;;3.83;;
36379;SDS011;22411;53.016;18.632;2023-04-12T09:19:07;5.05;;;4.07;;
36379;SDS011;22411;53.016;18.632;2023-04-12T09:21:34;4.97;;;4.35;;
36379;SDS011;22411;53.016;18.632;2023-04-12T09:24:05;6.32;;;3.97;;
36379;SDS011;22411;53.016;18.632;2023-04-12T09:26:37;9.38;;;8.40;;
36379;SDS011;22411;53.016;18.632;2023-04-12T09:29:05;8.60;;;7.70;;
36379;SDS011;22411;53.016;18.632;2023-04-12T09:32:02;5.25;;;4.75;;
36379;SDS011;22411;53.016;18.632;2023-04-12T09:34:30;6.00;;;4.18;;
36379;SDS011;22411;53.016;18.632;2023-04-12T09:36:57;4.47;;;4.07;;
36379;SDS011;22411;53.016;18.632;2023-04-12T09:39:33;4.72;;;4.22;;
36379;SDS011;22411;53.016;18.632;2023-04-12T09:42:03;5.38;;;4.32;;
36379;SDS011;22411;53.016;18.632;2023-04-12T09:44:31;9.50;;;6.85;;
36379;SDS011;22411;53.016;18.632;2023-04-12T09:46:59;7.97;;;5.20;;
36379;SDS011;22411;53.016;18.632;2023-04-12T09:49:37;6.82;;;4.10;;
36379;SDS011;22411;53.016;18.632;2023-04-12T09:52:05;29.88;;;17.40;;
36379;SDS011;22411;53.016;18.632;2023-04-12T09:54:36;8.18;;;5.65;;
36379;SDS011;22411;53.016;18.632;2023-04-12T09:57:13;8.63;;;7.27;;
36379;SDS011;22411;53.016;18.632;2023-04-12T10:02:15;4.65;;;3.10;;
36379;SDS011;22411;53.016;18.632;2023-04-12T10:04:43;2.92;;;2.63;;
36379;SDS011;22411;53.016;18.632;2023-04-12T10:07:10;5.72;;;4.70;;
36379;SDS011;22411;53.016;18.632;2023-04-12T10:09:37;4.28;;;2.05;;
36379;SDS011;22411;53.016;18.632;2023-04-12T10:12:05;4.63;;;2.15;;
36379;SDS011;22411;53.016;18.632;2023-04-12T10:14:33;2.65;;;1.88;;
36379;SDS011;22411;53.016;18.632;2023-04-12T10:17:00;4.95;;;2.83;;
36379;SDS011;22411;53.016;18.632;2023-04-12T10:19:28;7.43;;;4.35;;
36379;SDS011;22411;53.016;18.632;2023-04-12T10:21:56;2.70;;;1.48;;
36379;SDS011;22411;53.016;18.632;2023-04-12T10:24:23;4.55;;;1.60;;
36379;SDS011;22411;53.016;18.632;2023-04-12T10:26:50;2.28;;;1.10;;
36379;SDS011;22411;53.016;18.632;2023-04-12T10:32:36;3.00;;;1.67;;
36379;SDS011;22411;53.016;18.632;2023-04-12T10:34:48;27.98;;;25.42;;
36379;SDS011;22411;53.016;18.632;2023-04-12T10:37:19;4.72;;;3.45;;
36379;SDS011;22411;53.016;18.632;2023-04-12T10:39:52;4.07;;;3.22;;
36379;SDS011;22411;53.016;18.632;2023-04-12T10:42:26;2.70;;;1.52;;
36379;SDS011;22411;53.016;18.632;2023-04-12T10:50:21;48.13;;;40.63;;
36379;SDS011;22411;53.016;18.632;2023-04-12T10:55:52;2.40;;;1.77;;
36379;SDS011;22411;53.016;18.632;2023-04-12T11:01:14;2.15;;;1.58;;
36379;SDS011;22411;53.016;18.632;2023-04-12T11:14:34;2.30;;;1.50;;
36379;SDS011;22411;53.016;18.632;2023-04-12T11:19:32;3.88;;;2.15;;
36379;SDS011;22411;53.016;18.632;2023-04-12T11:22:08;3.17;;;1.75;;
36379;SDS011;22411;53.016;18.632;2023-04-12T11:24:58;6.60;;;2.72;;
36379;SDS011;22411;53.016;18.632;2023-04-12T11:27:26;3.50;;;3.15;;
36379;SDS011;22411;53.016;18.632;2023-04-12T11:29:54;3.45;;;1.95;;
36379;SDS011;22411;53.016;18.632;2023-04-12T11:32:23;2.20;;;1.20;;
36379;SDS011;22411;53.016;18.632;2023-04-12T11:34:52;2.70;;;0.85;;
36379;SDS011;22411;53.016;18.632;2023-04-12T11:37:21;3.28;;;1.55;;
36379;SDS011;22411;53.016;18.632;2023-04-12T11:39:50;2.75;;;1.80;;
36379;SDS011;22411;53.016;18.632;2023-04-12T11:42:20;2.72;;;1.70;;
36379;SDS011;22411;53.016;18.632;2023-04-12T11:44:48;1.50;;;1.02;;
36379;SDS011;22411;53.016;18.632;2023-04-12T11:47:17;1.60;;;0.80;;
36379;SDS011;22411;53.016;18.632;2023-04-12T11:49:49;1.33;;;0.73;;
36379;SDS011;22411;53.016;18.632;2023-04-12T11:52:18;1.35;;;0.50;;
36379;SDS011;22411;53.016;18.632;2023-04-12T11:54:45;1.40;;;0.70;;
36379;SDS011;22411;53.016;18.632;2023-04-12T11:57:14;1.20;;;0.50;;
36379;SDS011;22411;53.016;18.632;2023-04-12T11:59:43;1.13;;;0.60;;
36379;SDS011;22411;53.016;18.632;2023-04-12T12:02:14;1.58;;;0.70;;
36379;SDS011;22411;53.016;18.632;2023-04-12T12:04:46;0.98;;;0.40;;
36379;SDS011;22411;53.016;18.632;2023-04-12T12:07:14;2.22;;;0.73;;
36379;SDS011;22411;53.016;18.632;2023-04-12T12:09:41;2.22;;;1.23;;
36379;SDS011;22411;53.016;18.632;2023-04-12T12:12:09;1.80;;;0.98;;
36379;SDS011;22411;53.016;18.632;2023-04-12T12:14:36;1.35;;;0.80;;
36379;SDS011;22411;53.016;18.632;2023-04-12T12:17:08;1.27;;;0.70;;
36379;SDS011;22411;53.016;18.632;2023-04-12T12:19:39;2.50;;;0.95;;
36379;SDS011;22411;53.016;18.632;2023-04-12T12:24:44;2.03;;;1.10;;
36379;SDS011;22411;53.016;18.632;2023-04-12T12:27:15;2.20;;;1.30;;
36379;SDS011;22411;53.016;18.632;2023-04-12T12:29:43;3.55;;;2.78;;
36379;SDS011;22411;53.016;18.632;2023-04-12T12:32:13;3.00;;;2.22;;
36379;SDS011;22411;53.016;18.632;2023-04-12T12:34:49;2.45;;;1.85;;
36379;SDS011;22411;53.016;18.632;2023-04-12T12:37:22;3.40;;;3.10;;
36379;SDS011;22411;53.016;18.632;2023-04-12T12:40:05;3.53;;;2.28;;
36379;SDS011;22411;53.016;18.632;2023-04-12T12:42:45;2.45;;;1.48;;
36379;SDS011;22411;53.016;18.632;2023-04-12T12:45:21;3.92;;;2.40;;
36379;SDS011;22411;53.016;18.632;2023-04-12T12:47:51;2.70;;;2.45;;
36379;SDS011;22411;53.016;18.632;2023-04-12T12:50:21;4.30;;;3.90;;
36379;SDS011;22411;53.016;18.632;2023-04-12T12:52:50;5.00;;;3.20;;
36379;SDS011;22411;53.016;18.632;2023-04-12T12:55:16;4.15;;;3.53;;
36379;SDS011;22411;53.016;18.632;2023-04-12T12:57:44;5.28;;;4.18;;
36379;SDS011;22411;53.016;18.632;2023-04-12T13:00:11;6.07;;;5.03;;
36379;SDS011;22411;53.016;18.632;2023-04-12T13:02:43;5.53;;;4.35;;
36379;SDS011;22411;53.016;18.632;2023-04-12T13:05:09;5.03;;;4.45;;
36379;SDS011;22411;53.016;18.632;2023-04-12T13:07:37;5.82;;;4.70;;
36379;SDS011;22411;53.016;18.632;2023-04-12T13:10:03;6.88;;;5.53;;
36379;SDS011;22411;53.016;18.632;2023-04-12T13:12:31;5.07;;;4.18;;
36379;SDS011;22411;53.016;18.632;2023-04-12T13:15:01;4.90;;;4.40;;
36379;SDS011;22411;53.016;18.632;2023-04-12T13:17:28;5.18;;;4.68;;
36379;SDS011;22411;53.016;18.632;2023-04-12T13:19:55;4.50;;;4.05;;
36379;SDS011;22411;53.016;18.632;2023-04-12T13:22:22;4.93;;;4.43;;
36379;SDS011;22411;53.016;18.632;2023-04-12T13:24:49;4.65;;;4.15;;
36379;SDS011;22411;53.016;18.632;2023-04-12T13:27:17;14.93;;;10.40;;
36379;SDS011;22411;53.016;18.632;2023-04-12T13:29:43;8.00;;;6.47;;
36379;SDS011;22411;53.016;18.632;2023-04-12T13:32:10;12.68;;;9.23;;
36379;SDS011;22411;53.016;18.632;2023-04-12T13:34:36;8.15;;;6.25;;
36379;SDS011;22411;53.016;18.632;2023-04-12T13:37:03;7.22;;;5.85;;
36379;SDS011;22411;53.016;18.632;2023-04-12T13:39:29;42.72;;;21.38;;
36379;SDS011;22411;53.016;18.632;2023-04-12T13:41:56;8.48;;;6.68;;
36379;SDS011;22411;53.016;18.632;2023-04-12T13:44:23;9.15;;;6.15;;
36379;SDS011;22411;53.016;18.632;2023-04-12T13:46:53;97.03;;;52.05;;
36379;SDS011;22411;53.016;18.632;2023-04-12T13:49:19;130.55;;;70.20;;
36379;SDS011;22411;53.016;18.632;2023-04-12T13:51:45;27.40;;;17.48;;
36379;SDS011;22411;53.016;18.632;2023-04-12T13:54:17;9.77;;;6.32;;
36379;SDS011;22411;53.016;18.632;2023-04-12T13:56:44;12.18;;;10.13;;
36379;SDS011;22411;53.016;18.632;2023-04-12T13:59:10;12.13;;;9.07;;
36379;SDS011;22411;53.016;18.632;2023-04-12T14:01:37;9.20;;;6.50;;
36379;SDS011;22411;53.016;18.632;2023-04-12T14:04:04;8.55;;;7.55;;
36379;SDS011;22411;53.016;18.632;2023-04-12T14:06:31;11.50;;;9.93;;
36379;SDS011;22411;53.016;18.632;2023-04-12T14:08:57;11.10;;;8.50;;
36379;SDS011;22411;53.016;18.632;2023-04-12T14:11:23;12.32;;;9.13;;
36379;SDS011;22411;53.016;18.632;2023-04-12T14:13:50;44.35;;;32.50;;
36379;SDS011;22411;53.016;18.632;2023-04-12T14:16:16;15.10;;;9.98;;
36379;SDS011;22411;53.016;18.632;2023-04-12T14:18:42;20.38;;;17.60;;
36379;SDS011;22411;53.016;18.632;2023-04-12T14:21:09;9.93;;;8.30;;
36379;SDS011;22411;53.016;18.632;2023-04-12T14:23:35;14.32;;;11.93;;
36379;SDS011;22411;53.016;18.632;2023-04-12T14:26:02;12.32;;;8.93;;
36379;SDS011;22411;53.016;18.632;2023-04-12T14:28:28;9.15;;;6.53;;
36379;SDS011;22411;53.016;18.632;2023-04-12T14:31:00;12.50;;;9.73;;
36379;SDS011;22411;53.016;18.632;2023-04-12T14:33:26;8.43;;;6.47;;
36379;SDS011;22411;53.016;18.632;2023-04-12T14:35:53;9.30;;;7.50;;
36379;SDS011;22411;53.016;18.632;2023-04-12T14:38:19;11.88;;;8.18;;
36379;SDS011;22411;53.016;18.632;2023-04-12T14:40:45;10.95;;;9.70;;
36379;SDS011;22411;53.016;18.632;2023-04-12T14:43:11;6.50;;;4.55;;
36379;SDS011;22411;53.016;18.632;2023-04-12T14:45:38;10.10;;;6.95;;
36379;SDS011;22411;53.016;18.632;2023-04-12T14:48:04;7.35;;;4.45;;
36379;SDS011;22411;53.016;18.632;2023-04-12T14:50:31;8.75;;;5.38;;
36379;SDS011;22411;53.016;18.632;2023-04-12T14:52:58;6.45;;;5.15;;
36379;SDS011;22411;53.016;18.632;2023-04-12T14:55:24;8.32;;;5.63;;
36379;SDS011;22411;53.016;18.632;2023-04-12T14:57:52;6.28;;;5.20;;
36379;SDS011;22411;53.016;18.632;2023-04-12T15:00:19;7.32;;;5.95;;
36379;SDS011;22411;53.016;18.632;2023-04-12T15:02:48;9.10;;;5.95;;
36379;SDS011;22411;53.016;18.632;2023-04-12T15:05:16;10.95;;;5.65;;